sensor_id;sensor_type;location;lat;lon;timestamp;temperature;humidity
11122;DHT22;5615;49.304;10.576;2023-04-10T00:01:48;2.40;99.90
11122;DHT22;5615;49.304;10.576;2023-04-10T00:04:15;2.40;99.90
11122;DHT22;5615;49.304;10.576;2023-04-10T00:06:43;2.30;99.90
11122;DHT22;5615;49.304;10.576;2023-04-10T00:09:09;2.30;99.90
11122;DHT22;5615;49.304;10.576;2023-04-10T00:11:36;2.30;99.90
11122;DHT22;5615;49.304;10.576;2023-04-10T00:14:03;2.20;99.90
11122;DHT22;5615;49.304;10.576;2023-04-10T00:16:29;2.10;99.90
11122;DHT22;5615;49.304;10.576;2023-04-10T00:18:56;2.10;99.90
11122;DHT22;5615;49.304;10.576;2023-04-10T00:21:22;2.00;99.90
11122;DHT22;5615;49.304;10.576;2023-04-10T00:23:50;2.00;99.90
11122;DHT22;5615;49.304;10.576;2023-04-10T00:26:17;2.00;99.90
11122;DHT22;5615;49.304;10.576;2023-04-10T00:28:45;2.00;99.90
11122;DHT22;5615;49.304;10.576;2023-04-10T00:31:11;2.00;99.90
11122;DHT22;5615;49.304;10.576;2023-04-10T00:33:38;2.00;99.90
11122;DHT22;5615;49.304;10.576;2023-04-10T00:36:05;1.90;99.90
11122;DHT22;5615;49.304;10.576;2023-04-10T00:38:32;1.80;99.90
11122;DHT22;5615;49.304;10.576;2023-04-10T00:41:00;1.80;99.90
11122;DHT22;5615;49.304;10.576;2023-04-10T00:43:26;1.90;99.90
11122;DHT22;5615;49.304;10.576;2023-04-10T00:45:53;1.70;99.90
11122;DHT22;5615;49.304;10.576;2023-04-10T00:48:20;1.70;99.90
11122;DHT22;5615;49.304;10.576;2023-04-10T00:50:47;1.70;99.90
11122;DHT22;5615;49.304;10.576;2023-04-10T00:53:13;1.70;99.90
11122;DHT22;5615;49.304;10.576;2023-04-10T00:55:40;1.70;99.90
11122;DHT22;5615;49.304;10.576;2023-04-10T00:58:08;1.70;99.90
11122;DHT22;5615;49.304;10.576;2023-04-10T01:00:38;1.70;99.90
11122;DHT22;5615;49.304;10.576;2023-04-10T01:03:05;1.70;99.90
11122;DHT22;5615;49.304;10.576;2023-04-10T01:05:37;1.70;99.90
11122;DHT22;5615;49.304;10.576;2023-04-10T01:08:11;1.70;99.90
11122;DHT22;5615;49.304;10.576;2023-04-10T01:10:45;1.70;99.90
11122;DHT22;5615;49.304;10.576;2023-04-10T01:13:21;1.60;99.90
11122;DHT22;5615;49.304;10.576;2023-04-10T01:15:53;1.60;99.90
11122;DHT22;5615;49.304;10.576;2023-04-10T01:18:27;1.60;99.90
11122;DHT22;5615;49.304;10.576;2023-04-10T01:20:57;1.50;99.90
11122;DHT22;5615;49.304;10.576;2023-04-10T01:23:47;1.30;99.90
11122;DHT22;5615;49.304;10.576;2023-04-10T01:26:15;1.20;99.90
11122;DHT22;5615;49.304;10.576;2023-04-10T01:28:56;1.40;99.90
11122;DHT22;5615;49.304;10.576;2023-04-10T01:31:30;1.40;99.90
11122;DHT22;5615;49.304;10.576;2023-04-10T01:34:04;1.40;99.90
11122;DHT22;5615;49.304;10.576;2023-04-10T01:36:35;1.40;99.90
11122;DHT22;5615;49.304;10.576;2023-04-10T01:39:03;1.20;99.90
11122;DHT22;5615;49.304;10.576;2023-04-10T01:41:32;1.20;99.90
11122;DHT22;5615;49.304;10.576;2023-04-10T01:44:01;1.20;99.90
11122;DHT22;5615;49.304;10.576;2023-04-10T01:46:28;1.20;99.90
11122;DHT22;5615;49.304;10.576;2023-04-10T01:48:57;1.20;99.90
11122;DHT22;5615;49.304;10.576;2023-04-10T01:51:26;1.20;99.90
11122;DHT22;5615;49.304;10.576;2023-04-10T01:53:53;1.10;99.90
11122;DHT22;5615;49.304;10.576;2023-04-10T01:56:20;1.10;99.90
11122;DHT22;5615;49.304;10.576;2023-04-10T01:58:47;1.00;99.90
11122;DHT22;5615;49.304;10.576;2023-04-10T02:01:19;1.00;99.90
11122;DHT22;5615;49.304;10.576;2023-04-10T02:03:46;0.90;99.90
11122;DHT22;5615;49.304;10.576;2023-04-10T02:06:15;0.80;99.90
11122;DHT22;5615;49.304;10.576;2023-04-10T02:08:50;0.80;99.90
11122;DHT22;5615;49.304;10.576;2023-04-10T02:11:24;0.80;99.90
11122;DHT22;5615;49.304;10.576;2023-04-10T02:13:53;0.80;99.90
11122;DHT22;5615;49.304;10.576;2023-04-10T02:16:22;0.80;99.90
11122;DHT22;5615;49.304;10.576;2023-04-10T02:18:49;0.70;99.90
11122;DHT22;5615;49.304;10.576;2023-04-10T02:21:17;0.80;99.90
11122;DHT22;5615;49.304;10.576;2023-04-10T02:23:43;0.80;99.90
11122;DHT22;5615;49.304;10.576;2023-04-10T02:26:10;0.60;99.90
11122;DHT22;5615;49.304;10.576;2023-04-10T02:28:37;0.70;99.90
11122;DHT22;5615;49.304;10.576;2023-04-10T02:31:05;0.60;99.90
11122;DHT22;5615;49.304;10.576;2023-04-10T02:33:33;0.60;99.90
11122;DHT22;5615;49.304;10.576;2023-04-10T02:35:59;0.60;99.90
11122;DHT22;5615;49.304;10.576;2023-04-10T02:38:26;0.60;99.90
11122;DHT22;5615;49.304;10.576;2023-04-10T02:40:52;0.40;99.90
11122;DHT22;5615;49.304;10.576;2023-04-10T02:43:19;0.40;99.90
11122;DHT22;5615;49.304;10.576;2023-04-10T02:45:46;0.40;99.90
11122;DHT22;5615;49.304;10.576;2023-04-10T02:48:13;0.40;99.90
11122;DHT22;5615;49.304;10.576;2023-04-10T02:50:41;0.30;99.90
11122;DHT22;5615;49.304;10.576;2023-04-10T02:53:12;0.30;99.90
11122;DHT22;5615;49.304;10.576;2023-04-10T02:55:39;0.30;99.90
11122;DHT22;5615;49.304;10.576;2023-04-10T02:58:06;0.40;99.90
11122;DHT22;5615;49.304;10.576;2023-04-10T03:00:32;0.20;99.90
11122;DHT22;5615;49.304;10.576;2023-04-10T03:02:59;0.20;99.90
11122;DHT22;5615;49.304;10.576;2023-04-10T03:05:26;0.20;99.90
11122;DHT22;5615;49.304;10.576;2023-04-10T03:07:54;0.00;99.90
11122;DHT22;5615;49.304;10.576;2023-04-10T03:10:21;0.00;99.90
11122;DHT22;5615;49.304;10.576;2023-04-10T03:12:48;0.10;99.90
11122;DHT22;5615;49.304;10.576;2023-04-10T03:15:15;0.00;99.90
11122;DHT22;5615;49.304;10.576;2023-04-10T03:17:42;0.00;99.90
11122;DHT22;5615;49.304;10.576;2023-04-10T03:20:10;-0.10;99.90
11122;DHT22;5615;49.304;10.576;2023-04-10T03:22:36;-0.10;99.90
11122;DHT22;5615;49.304;10.576;2023-04-10T03:25:06;-0.10;99.90
11122;DHT22;5615;49.304;10.576;2023-04-10T03:27:32;0.20;99.90
11122;DHT22;5615;49.304;10.576;2023-04-10T03:29:59;0.10;99.90
11122;DHT22;5615;49.304;10.576;2023-04-10T03:32:27;0.00;99.90
11122;DHT22;5615;49.304;10.576;2023-04-10T03:34:56;0.10;99.90
11122;DHT22;5615;49.304;10.576;2023-04-10T03:37:23;0.10;99.90
11122;DHT22;5615;49.304;10.576;2023-04-10T03:39:49;0.10;99.90
11122;DHT22;5615;49.304;10.576;2023-04-10T03:42:17;0.10;99.90
11122;DHT22;5615;49.304;10.576;2023-04-10T03:44:44;0.10;99.90
11122;DHT22;5615;49.304;10.576;2023-04-10T03:47:10;0.00;99.90
11122;DHT22;5615;49.304;10.576;2023-04-10T03:49:37;0.00;99.90
11122;DHT22;5615;49.304;10.576;2023-04-10T03:52:04;-0.10;99.90
11122;DHT22;5615;49.304;10.576;2023-04-10T03:54:31;-0.20;99.90
11122;DHT22;5615;49.304;10.576;2023-04-10T03:56:57;-0.30;99.90
11122;DHT22;5615;49.304;10.576;2023-04-10T03:59:25;-0.20;99.90
11122;DHT22;5615;49.304;10.576;2023-04-10T04:01:52;-0.20;99.90
11122;DHT22;5615;49.304;10.576;2023-04-10T04:04:18;-0.30;99.90
11122;DHT22;5615;49.304;10.576;2023-04-10T04:06:45;-0.30;99.90
11122;DHT22;5615;49.304;10.576;2023-04-10T04:09:13;-0.30;99.90
11122;DHT22;5615;49.304;10.576;2023-04-10T04:11:39;-0.30;99.90
11122;DHT22;5615;49.304;10.576;2023-04-10T04:14:07;-0.40;99.90
11122;DHT22;5615;49.304;10.576;2023-04-10T04:16:35;-0.30;99.90
11122;DHT22;5615;49.304;10.576;2023-04-10T04:19:01;-0.30;99.90
11122;DHT22;5615;49.304;10.576;2023-04-10T04:21:28;-0.30;99.90
11122;DHT22;5615;49.304;10.576;2023-04-10T04:23:55;-0.30;99.90
11122;DHT22;5615;49.304;10.576;2023-04-10T04:26:22;-0.30;99.90
11122;DHT22;5615;49.304;10.576;2023-04-10T04:28:49;-0.30;99.90
11122;DHT22;5615;49.304;10.576;2023-04-10T04:31:16;-0.20;99.90
11122;DHT22;5615;49.304;10.576;2023-04-10T04:33:43;-0.20;99.90
11122;DHT22;5615;49.304;10.576;2023-04-10T04:36:10;-0.20;99.90
11122;DHT22;5615;49.304;10.576;2023-04-10T04:38:37;-0.20;99.90
11122;DHT22;5615;49.304;10.576;2023-04-10T04:41:04;-0.20;99.90
11122;DHT22;5615;49.304;10.576;2023-04-10T04:43:30;-0.20;99.90
11122;DHT22;5615;49.304;10.576;2023-04-10T04:45:57;-0.20;99.90
11122;DHT22;5615;49.304;10.576;2023-04-10T04:48:24;-0.20;99.90
11122;DHT22;5615;49.304;10.576;2023-04-10T04:50:52;-0.20;99.90
11122;DHT22;5615;49.304;10.576;2023-04-10T04:53:18;-0.20;99.90
11122;DHT22;5615;49.304;10.576;2023-04-10T04:55:45;-0.10;99.90
11122;DHT22;5615;49.304;10.576;2023-04-10T04:58:11;-0.10;99.90
11122;DHT22;5615;49.304;10.576;2023-04-10T05:00:38;-0.10;99.90
11122;DHT22;5615;49.304;10.576;2023-04-10T05:03:05;0.00;99.90
11122;DHT22;5615;49.304;10.576;2023-04-10T05:05:31;0.00;99.90
11122;DHT22;5615;49.304;10.576;2023-04-10T05:07:59;0.10;99.90
11122;DHT22;5615;49.304;10.576;2023-04-10T05:10:26;0.30;99.90
11122;DHT22;5615;49.304;10.576;2023-04-10T05:12:52;0.40;99.90
11122;DHT22;5615;49.304;10.576;2023-04-10T05:15:19;0.40;99.90
11122;DHT22;5615;49.304;10.576;2023-04-10T05:17:45;0.50;99.90
11122;DHT22;5615;49.304;10.576;2023-04-10T05:20:15;0.60;99.90
11122;DHT22;5615;49.304;10.576;2023-04-10T05:22:42;0.70;99.90
11122;DHT22;5615;49.304;10.576;2023-04-10T05:25:10;0.80;99.90
11122;DHT22;5615;49.304;10.576;2023-04-10T05:27:36;0.90;99.90
11122;DHT22;5615;49.304;10.576;2023-04-10T05:30:03;1.00;99.90
11122;DHT22;5615;49.304;10.576;2023-04-10T05:32:30;1.10;99.90
11122;DHT22;5615;49.304;10.576;2023-04-10T05:34:57;1.10;99.90
11122;DHT22;5615;49.304;10.576;2023-04-10T05:37:23;1.20;99.90
11122;DHT22;5615;49.304;10.576;2023-04-10T05:39:50;1.30;99.90
11122;DHT22;5615;49.304;10.576;2023-04-10T05:42:18;1.40;99.90
11122;DHT22;5615;49.304;10.576;2023-04-10T05:44:44;1.40;99.90
11122;DHT22;5615;49.304;10.576;2023-04-10T05:47:11;1.50;99.90
11122;DHT22;5615;49.304;10.576;2023-04-10T05:49:38;1.60;99.90
11122;DHT22;5615;49.304;10.576;2023-04-10T05:52:04;1.70;99.90
11122;DHT22;5615;49.304;10.576;2023-04-10T05:54:31;1.80;99.90
11122;DHT22;5615;49.304;10.576;2023-04-10T05:56:57;1.90;99.90
11122;DHT22;5615;49.304;10.576;2023-04-10T05:59:25;2.00;99.90
11122;DHT22;5615;49.304;10.576;2023-04-10T06:01:52;2.20;99.90
11122;DHT22;5615;49.304;10.576;2023-04-10T06:04:18;2.20;99.90
11122;DHT22;5615;49.304;10.576;2023-04-10T06:06:46;2.40;99.90
11122;DHT22;5615;49.304;10.576;2023-04-10T06:09:13;2.50;99.90
11122;DHT22;5615;49.304;10.576;2023-04-10T06:11:39;2.60;99.90
11122;DHT22;5615;49.304;10.576;2023-04-10T06:14:06;2.70;99.90
11122;DHT22;5615;49.304;10.576;2023-04-10T06:16:34;2.80;99.90
11122;DHT22;5615;49.304;10.576;2023-04-10T06:19:01;2.90;99.90
11122;DHT22;5615;49.304;10.576;2023-04-10T06:21:27;3.00;99.90
11122;DHT22;5615;49.304;10.576;2023-04-10T06:23:54;3.00;99.90
11122;DHT22;5615;49.304;10.576;2023-04-10T06:26:20;3.20;99.90
11122;DHT22;5615;49.304;10.576;2023-04-10T06:28:47;3.20;99.90
11122;DHT22;5615;49.304;10.576;2023-04-10T06:31:14;3.40;99.90
11122;DHT22;5615;49.304;10.576;2023-04-10T06:33:42;3.50;99.90
11122;DHT22;5615;49.304;10.576;2023-04-10T06:36:08;3.70;99.90
11122;DHT22;5615;49.304;10.576;2023-04-10T06:38:35;3.80;99.90
11122;DHT22;5615;49.304;10.576;2023-04-10T06:41:03;3.90;99.90
11122;DHT22;5615;49.304;10.576;2023-04-10T06:43:31;4.10;99.90
11122;DHT22;5615;49.304;10.576;2023-04-10T06:45:57;4.20;99.90
11122;DHT22;5615;49.304;10.576;2023-04-10T06:48:24;4.30;99.90
11122;DHT22;5615;49.304;10.576;2023-04-10T06:50:52;4.50;99.90
11122;DHT22;5615;49.304;10.576;2023-04-10T06:53:19;4.60;99.90
11122;DHT22;5615;49.304;10.576;2023-04-10T06:55:45;4.70;99.90
11122;DHT22;5615;49.304;10.576;2023-04-10T06:58:12;4.80;99.90
11122;DHT22;5615;49.304;10.576;2023-04-10T07:00:38;5.00;99.90
11122;DHT22;5615;49.304;10.576;2023-04-10T07:03:05;5.20;99.90
11122;DHT22;5615;49.304;10.576;2023-04-10T07:05:32;5.30;99.90
11122;DHT22;5615;49.304;10.576;2023-04-10T07:08:00;5.50;99.90
11122;DHT22;5615;49.304;10.576;2023-04-10T07:10:26;5.70;99.90
11122;DHT22;5615;49.304;10.576;2023-04-10T07:12:53;5.90;99.90
11122;DHT22;5615;49.304;10.576;2023-04-10T07:15:21;6.00;99.90
11122;DHT22;5615;49.304;10.576;2023-04-10T07:17:48;6.20;99.90
11122;DHT22;5615;49.304;10.576;2023-04-10T07:20:14;6.40;99.90
11122;DHT22;5615;49.304;10.576;2023-04-10T07:22:41;6.70;99.90
11122;DHT22;5615;49.304;10.576;2023-04-10T07:25:09;6.90;99.90
11122;DHT22;5615;49.304;10.576;2023-04-10T07:27:36;7.10;99.90
11122;DHT22;5615;49.304;10.576;2023-04-10T07:30:03;7.30;99.90
11122;DHT22;5615;49.304;10.576;2023-04-10T07:32:31;7.50;99.90
11122;DHT22;5615;49.304;10.576;2023-04-10T07:34:59;7.70;99.90
11122;DHT22;5615;49.304;10.576;2023-04-10T07:37:25;7.90;99.90
11122;DHT22;5615;49.304;10.576;2023-04-10T07:39:52;8.20;99.90
11122;DHT22;5615;49.304;10.576;2023-04-10T07:42:20;8.40;99.90
11122;DHT22;5615;49.304;10.576;2023-04-10T07:44:47;8.60;99.90
11122;DHT22;5615;49.304;10.576;2023-04-10T07:47:14;8.90;99.90
11122;DHT22;5615;49.304;10.576;2023-04-10T07:49:40;9.20;99.90
11122;DHT22;5615;49.304;10.576;2023-04-10T07:52:07;9.40;99.90
11122;DHT22;5615;49.304;10.576;2023-04-10T07:54:33;9.60;99.90
11122;DHT22;5615;49.304;10.576;2023-04-10T07:57:00;9.70;99.90
11122;DHT22;5615;49.304;10.576;2023-04-10T07:59:28;10.00;99.90
11122;DHT22;5615;49.304;10.576;2023-04-10T08:01:55;9.90;99.90
11122;DHT22;5615;49.304;10.576;2023-04-10T08:04:21;9.90;99.90
11122;DHT22;5615;49.304;10.576;2023-04-10T08:06:48;10.00;99.90
11122;DHT22;5615;49.304;10.576;2023-04-10T08:09:14;10.10;99.90
11122;DHT22;5615;49.304;10.576;2023-04-10T08:11:41;10.10;99.90
11122;DHT22;5615;49.304;10.576;2023-04-10T08:14:08;10.10;99.90
11122;DHT22;5615;49.304;10.576;2023-04-10T08:16:36;10.30;99.90
11122;DHT22;5615;49.304;10.576;2023-04-10T08:19:03;10.40;99.90
11122;DHT22;5615;49.304;10.576;2023-04-10T08:21:30;10.30;99.90
11122;DHT22;5615;49.304;10.576;2023-04-10T08:23:58;10.50;99.90
11122;DHT22;5615;49.304;10.576;2023-04-10T08:26:26;10.70;99.90
11122;DHT22;5615;49.304;10.576;2023-04-10T08:28:55;10.90;99.90
11122;DHT22;5615;49.304;10.576;2023-04-10T08:31:23;11.00;99.90
11122;DHT22;5615;49.304;10.576;2023-04-10T08:33:51;11.20;99.90
11122;DHT22;5615;49.304;10.576;2023-04-10T08:36:18;11.40;99.90
11122;DHT22;5615;49.304;10.576;2023-04-10T08:38:45;11.70;99.90
11122;DHT22;5615;49.304;10.576;2023-04-10T08:41:12;11.80;99.90
11122;DHT22;5615;49.304;10.576;2023-04-10T08:43:39;11.80;99.90
11122;DHT22;5615;49.304;10.576;2023-04-10T08:46:07;12.00;99.90
11122;DHT22;5615;49.304;10.576;2023-04-10T08:48:37;11.60;99.90
11122;DHT22;5615;49.304;10.576;2023-04-10T08:51:09;11.60;99.90
11122;DHT22;5615;49.304;10.576;2023-04-10T08:53:40;11.90;99.90
11122;DHT22;5615;49.304;10.576;2023-04-10T08:56:11;12.20;99.90
11122;DHT22;5615;49.304;10.576;2023-04-10T08:58:38;12.20;99.90
11122;DHT22;5615;49.304;10.576;2023-04-10T09:01:06;12.50;99.90
11122;DHT22;5615;49.304;10.576;2023-04-10T09:03:33;12.60;99.90
11122;DHT22;5615;49.304;10.576;2023-04-10T09:06:01;12.90;99.90
11122;DHT22;5615;49.304;10.576;2023-04-10T09:08:29;12.90;99.90
11122;DHT22;5615;49.304;10.576;2023-04-10T09:10:56;12.80;99.90
11122;DHT22;5615;49.304;10.576;2023-04-10T09:13:35;12.90;99.90
11122;DHT22;5615;49.304;10.576;2023-04-10T09:16:02;12.80;99.90
11122;DHT22;5615;49.304;10.576;2023-04-10T09:18:40;13.10;99.90
11122;DHT22;5615;49.304;10.576;2023-04-10T09:21:08;13.20;99.90
11122;DHT22;5615;49.304;10.576;2023-04-10T09:23:36;13.20;99.30
11122;DHT22;5615;49.304;10.576;2023-04-10T09:26:20;12.90;99.60
11122;DHT22;5615;49.304;10.576;2023-04-10T09:28:55;13.20;99.90
11122;DHT22;5615;49.304;10.576;2023-04-10T09:31:27;13.40;99.90
11122;DHT22;5615;49.304;10.576;2023-04-10T09:34:12;13.50;98.80
11122;DHT22;5615;49.304;10.576;2023-04-10T09:36:40;13.90;98.70
11122;DHT22;5615;49.304;10.576;2023-04-10T09:39:09;13.80;97.10
11122;DHT22;5615;49.304;10.576;2023-04-10T09:41:46;13.60;96.40
11122;DHT22;5615;49.304;10.576;2023-04-10T09:44:15;14.00;96.30
11122;DHT22;5615;49.304;10.576;2023-04-10T09:46:43;13.90;94.60
11122;DHT22;5615;49.304;10.576;2023-04-10T09:49:09;14.20;94.30
11122;DHT22;5615;49.304;10.576;2023-04-10T09:51:36;14.60;92.10
11122;DHT22;5615;49.304;10.576;2023-04-10T09:54:04;15.00;91.00
11122;DHT22;5615;49.304;10.576;2023-04-10T09:56:35;15.20;91.20
11122;DHT22;5615;49.304;10.576;2023-04-10T09:59:05;15.30;87.90
11122;DHT22;5615;49.304;10.576;2023-04-10T10:01:33;15.20;87.20
11122;DHT22;5615;49.304;10.576;2023-04-10T10:04:01;15.20;83.40
11122;DHT22;5615;49.304;10.576;2023-04-10T10:06:29;15.50;83.80
11122;DHT22;5615;49.304;10.576;2023-04-10T10:09:01;16.00;81.40
11122;DHT22;5615;49.304;10.576;2023-04-10T10:11:29;15.50;71.50
11122;DHT22;5615;49.304;10.576;2023-04-10T10:13:59;15.80;71.00
11122;DHT22;5615;49.304;10.576;2023-04-10T10:16:33;16.10;72.40
11122;DHT22;5615;49.304;10.576;2023-04-10T10:19:02;16.80;71.90
11122;DHT22;5615;49.304;10.576;2023-04-10T10:21:31;16.20;67.10
11122;DHT22;5615;49.304;10.576;2023-04-10T10:24:01;16.50;67.30
11122;DHT22;5615;49.304;10.576;2023-04-10T10:26:29;16.40;64.50
11122;DHT22;5615;49.304;10.576;2023-04-10T10:29:02;16.20;65.40
11122;DHT22;5615;49.304;10.576;2023-04-10T10:31:31;15.60;62.10
11122;DHT22;5615;49.304;10.576;2023-04-10T10:34:00;15.90;63.40
11122;DHT22;5615;49.304;10.576;2023-04-10T10:36:29;16.20;60.60
11122;DHT22;5615;49.304;10.576;2023-04-10T10:39:08;16.00;59.40
11122;DHT22;5615;49.304;10.576;2023-04-10T10:41:41;16.40;58.50
11122;DHT22;5615;49.304;10.576;2023-04-10T10:44:15;16.80;57.70
11122;DHT22;5615;49.304;10.576;2023-04-10T10:46:46;17.00;57.20
11122;DHT22;5615;49.304;10.576;2023-04-10T10:49:14;16.70;59.40
11122;DHT22;5615;49.304;10.576;2023-04-10T10:51:44;17.40;54.00
11122;DHT22;5615;49.304;10.576;2023-04-10T10:54:28;17.50;52.50
11122;DHT22;5615;49.304;10.576;2023-04-10T10:56:55;18.20;50.80
11122;DHT22;5615;49.304;10.576;2023-04-10T11:02:25;18.00;47.70
11122;DHT22;5615;49.304;10.576;2023-04-10T11:04:51;19.00;47.60
11122;DHT22;5615;49.304;10.576;2023-04-10T11:07:18;18.60;45.10
11122;DHT22;5615;49.304;10.576;2023-04-10T11:09:49;19.50;45.50
11122;DHT22;5615;49.304;10.576;2023-04-10T11:12:17;20.30;44.10
11122;DHT22;5615;49.304;10.576;2023-04-10T11:14:44;20.00;41.20
11122;DHT22;5615;49.304;10.576;2023-04-10T11:17:47;19.70;40.80
11122;DHT22;5615;49.304;10.576;2023-04-10T11:20:15;20.30;40.40
11122;DHT22;5615;49.304;10.576;2023-04-10T11:23:07;21.80;40.30
11122;DHT22;5615;49.304;10.576;2023-04-10T11:25:49;21.90;35.30
11122;DHT22;5615;49.304;10.576;2023-04-10T11:28:38;22.20;33.70
11122;DHT22;5615;49.304;10.576;2023-04-10T11:31:18;22.40;32.60
11122;DHT22;5615;49.304;10.576;2023-04-10T11:33:49;23.00;31.70
11122;DHT22;5615;49.304;10.576;2023-04-10T11:36:18;23.00;30.00
11122;DHT22;5615;49.304;10.576;2023-04-10T11:38:54;21.50;30.00
11122;DHT22;5615;49.304;10.576;2023-04-10T11:41:26;20.70;30.00
11122;DHT22;5615;49.304;10.576;2023-04-10T11:43:53;19.60;30.80
11122;DHT22;5615;49.304;10.576;2023-04-10T11:46:20;19.80;32.60
11122;DHT22;5615;49.304;10.576;2023-04-10T11:48:51;20.80;30.20
11122;DHT22;5615;49.304;10.576;2023-04-10T11:51:18;21.90;30.40
11122;DHT22;5615;49.304;10.576;2023-04-10T11:53:45;23.20;29.00
11122;DHT22;5615;49.304;10.576;2023-04-10T11:56:16;23.70;28.40
11122;DHT22;5615;49.304;10.576;2023-04-10T11:58:42;24.10;28.00
11122;DHT22;5615;49.304;10.576;2023-04-10T12:01:09;24.90;27.40
11122;DHT22;5615;49.304;10.576;2023-04-10T12:03:39;25.40;27.30
11122;DHT22;5615;49.304;10.576;2023-04-10T12:06:09;24.60;25.60
11122;DHT22;5615;49.304;10.576;2023-04-10T12:08:38;22.90;26.10
11122;DHT22;5615;49.304;10.576;2023-04-10T12:11:06;21.90;26.20
11122;DHT22;5615;49.304;10.576;2023-04-10T12:13:34;22.80;25.80
11122;DHT22;5615;49.304;10.576;2023-04-10T12:16:04;21.80;26.20
11122;DHT22;5615;49.304;10.576;2023-04-10T12:18:31;19.90;27.80
11122;DHT22;5615;49.304;10.576;2023-04-10T12:20:59;22.20;28.00
11122;DHT22;5615;49.304;10.576;2023-04-10T12:23:28;22.70;26.00
11122;DHT22;5615;49.304;10.576;2023-04-10T12:26:06;23.20;25.70
11122;DHT22;5615;49.304;10.576;2023-04-10T12:28:33;22.30;27.00
11122;DHT22;5615;49.304;10.576;2023-04-10T12:31:00;23.50;27.20
11122;DHT22;5615;49.304;10.576;2023-04-10T12:33:27;23.40;26.60
11122;DHT22;5615;49.304;10.576;2023-04-10T12:35:54;23.00;26.90
11122;DHT22;5615;49.304;10.576;2023-04-10T12:38:39;24.40;25.80
11122;DHT22;5615;49.304;10.576;2023-04-10T12:41:07;24.30;25.30
11122;DHT22;5615;49.304;10.576;2023-04-10T12:43:34;22.60;25.20
11122;DHT22;5615;49.304;10.576;2023-04-10T12:46:03;23.20;26.00
11122;DHT22;5615;49.304;10.576;2023-04-10T12:48:30;23.00;25.00
11122;DHT22;5615;49.304;10.576;2023-04-10T12:50:57;23.90;25.20
11122;DHT22;5615;49.304;10.576;2023-04-10T12:53:24;25.20;22.00
11122;DHT22;5615;49.304;10.576;2023-04-10T12:56:02;26.50;22.90
11122;DHT22;5615;49.304;10.576;2023-04-10T12:58:31;27.10;22.20
11122;DHT22;5615;49.304;10.576;2023-04-10T13:01:01;26.00;22.50
11122;DHT22;5615;49.304;10.576;2023-04-10T13:03:28;26.50;21.90
11122;DHT22;5615;49.304;10.576;2023-04-10T13:05:55;25.00;22.40
11122;DHT22;5615;49.304;10.576;2023-04-10T13:08:22;25.80;22.00
11122;DHT22;5615;49.304;10.576;2023-04-10T13:10:48;25.90;21.90
11122;DHT22;5615;49.304;10.576;2023-04-10T13:13:16;24.70;21.50
11122;DHT22;5615;49.304;10.576;2023-04-10T13:15:43;24.50;22.00
11122;DHT22;5615;49.304;10.576;2023-04-10T13:18:10;24.10;21.80
11122;DHT22;5615;49.304;10.576;2023-04-10T13:20:37;25.90;21.20
11122;DHT22;5615;49.304;10.576;2023-04-10T13:23:04;26.70;20.30
11122;DHT22;5615;49.304;10.576;2023-04-10T13:25:31;26.40;20.00
11122;DHT22;5615;49.304;10.576;2023-04-10T13:27:58;26.10;19.50
11122;DHT22;5615;49.304;10.576;2023-04-10T13:30:27;24.70;20.50
11122;DHT22;5615;49.304;10.576;2023-04-10T13:32:53;25.10;20.00
11122;DHT22;5615;49.304;10.576;2023-04-10T13:35:20;25.70;20.10
11122;DHT22;5615;49.304;10.576;2023-04-10T13:37:47;26.10;20.10
11122;DHT22;5615;49.304;10.576;2023-04-10T13:40:17;27.50;19.20
11122;DHT22;5615;49.304;10.576;2023-04-10T13:42:44;27.00;18.60
11122;DHT22;5615;49.304;10.576;2023-04-10T13:45:10;27.50;18.20
11122;DHT22;5615;49.304;10.576;2023-04-10T13:47:38;27.60;16.90
11122;DHT22;5615;49.304;10.576;2023-04-10T13:50:06;26.80;18.00
11122;DHT22;5615;49.304;10.576;2023-04-10T13:52:32;27.80;17.60
11122;DHT22;5615;49.304;10.576;2023-04-10T13:54:59;28.30;16.20
11122;DHT22;5615;49.304;10.576;2023-04-10T13:57:25;27.70;16.70
11122;DHT22;5615;49.304;10.576;2023-04-10T13:59:52;27.90;16.90
11122;DHT22;5615;49.304;10.576;2023-04-10T14:02:19;28.60;16.60
11122;DHT22;5615;49.304;10.576;2023-04-10T14:04:47;28.10;16.50
11122;DHT22;5615;49.304;10.576;2023-04-10T14:07:17;27.30;17.30
11122;DHT22;5615;49.304;10.576;2023-04-10T14:09:43;27.90;17.20
11122;DHT22;5615;49.304;10.576;2023-04-10T14:12:11;27.60;16.10
11122;DHT22;5615;49.304;10.576;2023-04-10T14:14:40;25.70;17.20
11122;DHT22;5615;49.304;10.576;2023-04-10T14:17:07;25.20;18.20
11122;DHT22;5615;49.304;10.576;2023-04-10T14:19:34;24.90;18.40
11122;DHT22;5615;49.304;10.576;2023-04-10T14:22:02;23.10;18.80
11122;DHT22;5615;49.304;10.576;2023-04-10T14:24:28;24.00;19.30
11122;DHT22;5615;49.304;10.576;2023-04-10T14:26:55;23.70;18.90
11122;DHT22;5615;49.304;10.576;2023-04-10T14:29:25;23.30;18.90
11122;DHT22;5615;49.304;10.576;2023-04-10T14:31:51;23.30;19.40
11122;DHT22;5615;49.304;10.576;2023-04-10T14:34:18;24.00;18.80
11122;DHT22;5615;49.304;10.576;2023-04-10T14:36:44;24.00;18.70
11122;DHT22;5615;49.304;10.576;2023-04-10T14:39:12;23.70;18.70
11122;DHT22;5615;49.304;10.576;2023-04-10T14:41:39;22.20;19.00
11122;DHT22;5615;49.304;10.576;2023-04-10T14:44:05;21.30;20.80
11122;DHT22;5615;49.304;10.576;2023-04-10T14:46:32;21.30;20.60
11122;DHT22;5615;49.304;10.576;2023-04-10T14:48:59;20.60;21.20
11122;DHT22;5615;49.304;10.576;2023-04-10T14:51:25;20.40;21.50
11122;DHT22;5615;49.304;10.576;2023-04-10T14:53:52;19.90;21.70
11122;DHT22;5615;49.304;10.576;2023-04-10T14:56:20;19.40;21.80
11122;DHT22;5615;49.304;10.576;2023-04-10T14:58:46;19.60;22.40
11122;DHT22;5615;49.304;10.576;2023-04-10T15:01:13;20.00;21.90
11122;DHT22;5615;49.304;10.576;2023-04-10T15:03:40;20.40;21.40
11122;DHT22;5615;49.304;10.576;2023-04-10T15:06:07;20.90;21.50
11122;DHT22;5615;49.304;10.576;2023-04-10T15:08:33;20.70;21.40
11122;DHT22;5615;49.304;10.576;2023-04-10T15:11:00;20.00;22.00
11122;DHT22;5615;49.304;10.576;2023-04-10T15:13:30;19.90;22.00
11122;DHT22;5615;49.304;10.576;2023-04-10T15:15:58;19.40;22.50
11122;DHT22;5615;49.304;10.576;2023-04-10T15:18:25;19.30;22.80
11122;DHT22;5615;49.304;10.576;2023-04-10T15:20:51;19.40;22.70
11122;DHT22;5615;49.304;10.576;2023-04-10T15:23:19;19.30;22.30
11122;DHT22;5615;49.304;10.576;2023-04-10T15:25:46;19.40;22.20
11122;DHT22;5615;49.304;10.576;2023-04-10T15:28:12;19.10;22.20
11122;DHT22;5615;49.304;10.576;2023-04-10T15:30:42;19.50;22.60
11122;DHT22;5615;49.304;10.576;2023-04-10T15:33:09;19.70;22.00
11122;DHT22;5615;49.304;10.576;2023-04-10T15:35:36;19.00;22.00
11122;DHT22;5615;49.304;10.576;2023-04-10T15:40:30;18.60;23.20
11122;DHT22;5615;49.304;10.576;2023-04-10T15:42:56;19.50;22.60
11122;DHT22;5615;49.304;10.576;2023-04-10T15:45:24;20.10;21.90
11122;DHT22;5615;49.304;10.576;2023-04-10T15:47:52;21.00;22.00
11122;DHT22;5615;49.304;10.576;2023-04-10T15:50:19;20.50;21.50